sensor_id;sensor_type;location;lat;lon;timestamp;P1;durP1;ratioP1;P2;durP2;ratioP2
2874;SDS011;1445;52.600;13.328;2023-02-02T00:01:50;15.68;;;3.03;;
2874;SDS011;1445;52.600;13.328;2023-02-02T00:04:19;13.70;;;2.78;;
2874;SDS011;1445;52.600;13.328;2023-02-02T00:06:46;14.68;;;2.95;;
2874;SDS011;1445;52.600;13.328;2023-02-02T00:09:13;14.38;;;3.17;;
2874;SDS011;1445;52.600;13.328;2023-02-02T00:11:40;14.25;;;3.72;;
2874;SDS011;1445;52.600;13.328;2023-02-02T00:14:06;14.60;;;2.20;;
2874;SDS011;1445;52.600;13.328;2023-02-02T00:16:48;14.77;;;2.60;;
2874;SDS011;1445;52.600;13.328;2023-02-02T00:19:19;12.05;;;2.20;;
2874;SDS011;1445;52.600;13.328;2023-02-02T00:21:47;14.60;;;2.50;;
2874;SDS011;1445;52.600;13.328;2023-02-02T00:24:13;12.75;;;2.15;;
2874;SDS011;1445;52.600;13.328;2023-02-02T00:26:44;18.45;;;2.63;;
2874;SDS011;1445;52.600;13.328;2023-02-02T00:29:13;14.32;;;2.50;;
2874;SDS011;1445;52.600;13.328;2023-02-02T00:31:40;15.13;;;2.53;;
2874;SDS011;1445;52.600;13.328;2023-02-02T00:34:05;13.30;;;2.40;;
2874;SDS011;1445;52.600;13.328;2023-02-02T00:36:31;15.38;;;2.67;;
2874;SDS011;1445;52.600;13.328;2023-02-02T00:38:56;12.57;;;3.08;;
2874;SDS011;1445;52.600;13.328;2023-02-02T00:41:22;14.13;;;2.80;;
2874;SDS011;1445;52.600;13.328;2023-02-02T00:43:47;12.55;;;2.10;;
2874;SDS011;1445;52.600;13.328;2023-02-02T00:46:32;10.73;;;2.15;;
2874;SDS011;1445;52.600;13.328;2023-02-02T00:48:58;12.75;;;2.38;;
2874;SDS011;1445;52.600;13.328;2023-02-02T00:51:23;8.10;;;2.10;;
2874;SDS011;1445;52.600;13.328;2023-02-02T00:53:49;13.65;;;2.63;;
2874;SDS011;1445;52.600;13.328;2023-02-02T00:56:14;12.82;;;2.60;;
2874;SDS011;1445;52.600;13.328;2023-02-02T00:58:39;9.50;;;2.65;;
2874;SDS011;1445;52.600;13.328;2023-02-02T01:01:05;17.25;;;3.67;;
2874;SDS011;1445;52.600;13.328;2023-02-02T01:03:39;20.42;;;2.88;;
2874;SDS011;1445;52.600;13.328;2023-02-02T01:06:05;12.73;;;3.03;;
2874;SDS011;1445;52.600;13.328;2023-02-02T01:08:30;16.23;;;3.47;;
2874;SDS011;1445;52.600;13.328;2023-02-02T01:10:57;11.45;;;2.92;;
2874;SDS011;1445;52.600;13.328;2023-02-02T01:13:23;12.70;;;2.00;;
2874;SDS011;1445;52.600;13.328;2023-02-02T01:15:53;15.30;;;4.25;;
2874;SDS011;1445;52.600;13.328;2023-02-02T01:18:23;14.07;;;2.95;;
2874;SDS011;1445;52.600;13.328;2023-02-02T01:20:56;15.07;;;2.63;;
2874;SDS011;1445;52.600;13.328;2023-02-02T01:23:25;12.77;;;2.78;;
2874;SDS011;1445;52.600;13.328;2023-02-02T01:25:55;16.42;;;3.13;;
2874;SDS011;1445;52.600;13.328;2023-02-02T01:28:22;17.20;;;3.22;;
2874;SDS011;1445;52.600;13.328;2023-02-02T01:30:48;12.85;;;2.70;;
2874;SDS011;1445;52.600;13.328;2023-02-02T01:33:15;20.42;;;3.55;;
2874;SDS011;1445;52.600;13.328;2023-02-02T01:35:51;17.80;;;3.80;;
2874;SDS011;1445;52.600;13.328;2023-02-02T01:38:18;13.45;;;2.75;;
2874;SDS011;1445;52.600;13.328;2023-02-02T01:43:21;18.73;;;3.42;;
2874;SDS011;1445;52.600;13.328;2023-02-02T01:45:50;17.00;;;3.05;;
2874;SDS011;1445;52.600;13.328;2023-02-02T01:48:17;12.77;;;2.60;;
2874;SDS011;1445;52.600;13.328;2023-02-02T01:50:45;17.98;;;3.13;;
2874;SDS011;1445;52.600;13.328;2023-02-02T01:53:13;13.50;;;2.97;;
2874;SDS011;1445;52.600;13.328;2023-02-02T01:55:39;12.43;;;2.53;;
2874;SDS011;1445;52.600;13.328;2023-02-02T02:00:47;13.73;;;2.45;;
2874;SDS011;1445;52.600;13.328;2023-02-02T02:03:14;15.77;;;3.30;;
2874;SDS011;1445;52.600;13.328;2023-02-02T02:06:02;14.73;;;2.35;;
2874;SDS011;1445;52.600;13.328;2023-02-02T02:11:02;19.95;;;5.53;;
2874;SDS011;1445;52.600;13.328;2023-02-02T02:13:28;13.40;;;2.67;;
2874;SDS011;1445;52.600;13.328;2023-02-02T02:21:46;10.10;;;3.00;;
2874;SDS011;1445;52.600;13.328;2023-02-02T02:33:26;11.63;;;2.72;;
2874;SDS011;1445;52.600;13.328;2023-02-02T02:36:02;11.18;;;3.10;;
2874;SDS011;1445;52.600;13.328;2023-02-02T02:38:51;14.77;;;2.50;;
2874;SDS011;1445;52.600;13.328;2023-02-02T02:41:20;13.38;;;2.75;;
2874;SDS011;1445;52.600;13.328;2023-02-02T02:43:50;14.15;;;2.30;;
2874;SDS011;1445;52.600;13.328;2023-02-02T02:46:20;13.18;;;2.53;;
2874;SDS011;1445;52.600;13.328;2023-02-02T02:48:46;13.27;;;2.42;;
2874;SDS011;1445;52.600;13.328;2023-02-02T02:54:23;10.00;;;2.10;;
2874;SDS011;1445;52.600;13.328;2023-02-02T02:59:26;16.17;;;3.05;;
2874;SDS011;1445;52.600;13.328;2023-02-02T03:02:00;9.48;;;2.40;;
2874;SDS011;1445;52.600;13.328;2023-02-02T03:04:56;12.43;;;2.30;;
2874;SDS011;1445;52.600;13.328;2023-02-02T03:07:34;13.30;;;2.30;;
2874;SDS011;1445;52.600;13.328;2023-02-02T03:10:06;13.55;;;2.40;;
2874;SDS011;1445;52.600;13.328;2023-02-02T03:12:42;10.48;;;2.00;;
2874;SDS011;1445;52.600;13.328;2023-02-02T03:17:35;16.17;;;4.57;;
2874;SDS011;1445;52.600;13.328;2023-02-02T03:20:00;9.15;;;2.72;;
2874;SDS011;1445;52.600;13.328;2023-02-02T03:22:25;11.48;;;2.00;;
2874;SDS011;1445;52.600;13.328;2023-02-02T03:24:51;14.52;;;1.65;;
2874;SDS011;1445;52.600;13.328;2023-02-02T03:27:17;17.88;;;3.10;;
2874;SDS011;1445;52.600;13.328;2023-02-02T03:29:42;6.38;;;1.90;;
2874;SDS011;1445;52.600;13.328;2023-02-02T03:32:08;7.97;;;1.70;;
2874;SDS011;1445;52.600;13.328;2023-02-02T03:34:33;10.50;;;3.42;;
2874;SDS011;1445;52.600;13.328;2023-02-02T03:36:59;7.65;;;1.80;;
2874;SDS011;1445;52.600;13.328;2023-02-02T03:39:24;7.70;;;1.83;;
2874;SDS011;1445;52.600;13.328;2023-02-02T03:41:49;7.57;;;1.58;;
2874;SDS011;1445;52.600;13.328;2023-02-02T03:44:15;8.13;;;1.60;;
2874;SDS011;1445;52.600;13.328;2023-02-02T03:46:40;8.25;;;1.55;;
2874;SDS011;1445;52.600;13.328;2023-02-02T03:49:06;9.38;;;2.13;;
2874;SDS011;1445;52.600;13.328;2023-02-02T03:51:31;8.48;;;2.20;;
2874;SDS011;1445;52.600;13.328;2023-02-02T03:53:57;9.48;;;1.95;;
2874;SDS011;1445;52.600;13.328;2023-02-02T03:56:23;6.85;;;2.03;;
2874;SDS011;1445;52.600;13.328;2023-02-02T03:58:48;10.40;;;1.92;;
2874;SDS011;1445;52.600;13.328;2023-02-02T04:01:14;8.05;;;1.88;;
2874;SDS011;1445;52.600;13.328;2023-02-02T04:03:40;8.63;;;1.70;;
2874;SDS011;1445;52.600;13.328;2023-02-02T04:06:06;11.40;;;2.20;;
2874;SDS011;1445;52.600;13.328;2023-02-02T04:08:31;18.25;;;3.63;;
2874;SDS011;1445;52.600;13.328;2023-02-02T04:10:58;9.73;;;1.83;;
2874;SDS011;1445;52.600;13.328;2023-02-02T04:13:23;6.57;;;1.50;;
2874;SDS011;1445;52.600;13.328;2023-02-02T04:15:55;8.52;;;1.63;;
2874;SDS011;1445;52.600;13.328;2023-02-02T04:18:24;19.33;;;3.33;;
2874;SDS011;1445;52.600;13.328;2023-02-02T04:20:54;11.23;;;2.10;;
2874;SDS011;1445;52.600;13.328;2023-02-02T04:23:20;10.77;;;2.35;;
2874;SDS011;1445;52.600;13.328;2023-02-02T04:25:49;8.95;;;2.20;;
2874;SDS011;1445;52.600;13.328;2023-02-02T04:28:15;10.65;;;2.50;;
2874;SDS011;1445;52.600;13.328;2023-02-02T04:30:41;11.40;;;2.05;;
2874;SDS011;1445;52.600;13.328;2023-02-02T04:33:06;6.30;;;1.10;;
2874;SDS011;1445;52.600;13.328;2023-02-02T04:35:32;7.63;;;1.52;;
2874;SDS011;1445;52.600;13.328;2023-02-02T04:37:57;7.45;;;1.80;;
2874;SDS011;1445;52.600;13.328;2023-02-02T04:40:22;12.30;;;1.92;;
2874;SDS011;1445;52.600;13.328;2023-02-02T04:42:48;6.45;;;2.15;;
2874;SDS011;1445;52.600;13.328;2023-02-02T04:45:13;10.15;;;1.98;;
2874;SDS011;1445;52.600;13.328;2023-02-02T04:47:39;7.20;;;1.98;;
2874;SDS011;1445;52.600;13.328;2023-02-02T04:50:04;9.40;;;1.30;;
2874;SDS011;1445;52.600;13.328;2023-02-02T04:52:31;8.48;;;1.88;;
2874;SDS011;1445;52.600;13.328;2023-02-02T04:54:56;10.45;;;1.85;;
2874;SDS011;1445;52.600;13.328;2023-02-02T04:57:22;7.55;;;1.70;;
2874;SDS011;1445;52.600;13.328;2023-02-02T04:59:47;7.00;;;1.58;;
2874;SDS011;1445;52.600;13.328;2023-02-02T05:02:13;8.15;;;1.95;;
2874;SDS011;1445;52.600;13.328;2023-02-02T05:04:38;9.00;;;1.88;;
2874;SDS011;1445;52.600;13.328;2023-02-02T05:07:03;7.57;;;1.50;;
2874;SDS011;1445;52.600;13.328;2023-02-02T05:09:29;10.98;;;2.92;;
2874;SDS011;1445;52.600;13.328;2023-02-02T05:11:54;6.63;;;1.38;;
2874;SDS011;1445;52.600;13.328;2023-02-02T05:14:20;12.52;;;2.63;;
2874;SDS011;1445;52.600;13.328;2023-02-02T05:16:45;7.80;;;1.50;;
2874;SDS011;1445;52.600;13.328;2023-02-02T05:19:11;7.10;;;1.58;;
2874;SDS011;1445;52.600;13.328;2023-02-02T05:21:36;7.72;;;1.33;;
2874;SDS011;1445;52.600;13.328;2023-02-02T05:24:02;8.52;;;2.65;;
2874;SDS011;1445;52.600;13.328;2023-02-02T05:26:28;7.05;;;1.30;;
2874;SDS011;1445;52.600;13.328;2023-02-02T05:28:54;10.68;;;1.85;;
2874;SDS011;1445;52.600;13.328;2023-02-02T05:31:20;12.63;;;2.42;;
2874;SDS011;1445;52.600;13.328;2023-02-02T05:33:46;8.73;;;1.77;;
2874;SDS011;1445;52.600;13.328;2023-02-02T05:36:11;7.88;;;1.30;;
2874;SDS011;1445;52.600;13.328;2023-02-02T05:38:37;8.57;;;1.50;;
2874;SDS011;1445;52.600;13.328;2023-02-02T05:41:03;11.07;;;2.22;;
2874;SDS011;1445;52.600;13.328;2023-02-02T05:43:29;9.70;;;1.55;;
2874;SDS011;1445;52.600;13.328;2023-02-02T05:45:56;10.90;;;2.38;;
2874;SDS011;1445;52.600;13.328;2023-02-02T05:48:22;10.38;;;1.60;;
2874;SDS011;1445;52.600;13.328;2023-02-02T05:50:54;10.38;;;1.52;;
2874;SDS011;1445;52.600;13.328;2023-02-02T05:53:34;5.93;;;1.50;;
2874;SDS011;1445;52.600;13.328;2023-02-02T05:56:00;6.65;;;2.10;;
2874;SDS011;1445;52.600;13.328;2023-02-02T05:58:25;6.70;;;1.30;;
2874;SDS011;1445;52.600;13.328;2023-02-02T06:00:52;8.30;;;1.50;;
2874;SDS011;1445;52.600;13.328;2023-02-02T06:03:18;5.40;;;1.25;;
2874;SDS011;1445;52.600;13.328;2023-02-02T06:05:43;10.45;;;1.52;;
2874;SDS011;1445;52.600;13.328;2023-02-02T06:08:09;6.00;;;1.90;;
2874;SDS011;1445;52.600;13.328;2023-02-02T06:10:37;6.75;;;1.30;;
2874;SDS011;1445;52.600;13.328;2023-02-02T06:13:03;8.48;;;1.90;;
2874;SDS011;1445;52.600;13.328;2023-02-02T06:15:28;8.95;;;2.05;;
2874;SDS011;1445;52.600;13.328;2023-02-02T06:17:55;6.15;;;1.50;;
2874;SDS011;1445;52.600;13.328;2023-02-02T06:20:22;5.18;;;1.45;;
2874;SDS011;1445;52.600;13.328;2023-02-02T06:22:47;8.77;;;1.63;;
2874;SDS011;1445;52.600;13.328;2023-02-02T06:25:12;6.63;;;1.30;;
2874;SDS011;1445;52.600;13.328;2023-02-02T06:27:38;8.15;;;1.40;;
2874;SDS011;1445;52.600;13.328;2023-02-02T06:30:04;8.82;;;1.48;;
2874;SDS011;1445;52.600;13.328;2023-02-02T06:32:29;10.57;;;1.58;;
2874;SDS011;1445;52.600;13.328;2023-02-02T06:34:55;7.57;;;2.05;;
2874;SDS011;1445;52.600;13.328;2023-02-02T06:37:20;10.15;;;1.65;;
2874;SDS011;1445;52.600;13.328;2023-02-02T06:39:46;10.50;;;1.25;;
2874;SDS011;1445;52.600;13.328;2023-02-02T06:42:11;8.38;;;1.75;;
2874;SDS011;1445;52.600;13.328;2023-02-02T06:44:36;9.65;;;1.38;;
2874;SDS011;1445;52.600;13.328;2023-02-02T06:47:02;10.80;;;2.97;;
2874;SDS011;1445;52.600;13.328;2023-02-02T06:49:27;10.27;;;1.45;;
2874;SDS011;1445;52.600;13.328;2023-02-02T06:51:53;9.88;;;1.40;;
2874;SDS011;1445;52.600;13.328;2023-02-02T06:54:18;11.70;;;1.42;;
2874;SDS011;1445;52.600;13.328;2023-02-02T06:56:43;11.77;;;1.90;;
2874;SDS011;1445;52.600;13.328;2023-02-02T06:59:09;10.02;;;3.03;;
2874;SDS011;1445;52.600;13.328;2023-02-02T07:01:34;9.50;;;1.58;;
2874;SDS011;1445;52.600;13.328;2023-02-02T07:04:00;7.30;;;2.13;;
2874;SDS011;1445;52.600;13.328;2023-02-02T07:06:26;9.65;;;1.88;;
2874;SDS011;1445;52.600;13.328;2023-02-02T07:08:53;9.02;;;1.60;;
2874;SDS011;1445;52.600;13.328;2023-02-02T07:11:19;15.40;;;2.78;;
2874;SDS011;1445;52.600;13.328;2023-02-02T07:13:46;11.05;;;2.20;;
2874;SDS011;1445;52.600;13.328;2023-02-02T07:16:13;8.02;;;2.30;;
2874;SDS011;1445;52.600;13.328;2023-02-02T07:18:40;9.52;;;1.90;;
2874;SDS011;1445;52.600;13.328;2023-02-02T07:21:07;10.57;;;2.78;;
2874;SDS011;1445;52.600;13.328;2023-02-02T07:23:33;8.48;;;1.60;;
2874;SDS011;1445;52.600;13.328;2023-02-02T07:25:59;6.95;;;1.40;;
2874;SDS011;1445;52.600;13.328;2023-02-02T07:28:26;11.18;;;1.85;;
2874;SDS011;1445;52.600;13.328;2023-02-02T07:30:52;11.77;;;3.25;;
2874;SDS011;1445;52.600;13.328;2023-02-02T07:33:17;5.43;;;1.58;;
2874;SDS011;1445;52.600;13.328;2023-02-02T07:35:43;5.72;;;1.13;;
2874;SDS011;1445;52.600;13.328;2023-02-02T07:38:08;6.75;;;1.92;;
2874;SDS011;1445;52.600;13.328;2023-02-02T07:40:34;9.55;;;2.33;;
2874;SDS011;1445;52.600;13.328;2023-02-02T07:42:59;19.80;;;2.67;;
2874;SDS011;1445;52.600;13.328;2023-02-02T07:45:26;6.65;;;1.65;;
2874;SDS011;1445;52.600;13.328;2023-02-02T07:47:58;8.00;;;1.42;;
2874;SDS011;1445;52.600;13.328;2023-02-02T07:50:25;7.20;;;1.27;;
2874;SDS011;1445;52.600;13.328;2023-02-02T07:52:52;10.20;;;2.53;;
2874;SDS011;1445;52.600;13.328;2023-02-02T07:55:18;7.05;;;1.50;;
2874;SDS011;1445;52.600;13.328;2023-02-02T07:57:44;9.55;;;1.30;;
2874;SDS011;1445;52.600;13.328;2023-02-02T08:00:10;8.18;;;1.85;;
2874;SDS011;1445;52.600;13.328;2023-02-02T08:02:36;10.95;;;2.00;;
2874;SDS011;1445;52.600;13.328;2023-02-02T08:05:01;9.32;;;2.75;;
2874;SDS011;1445;52.600;13.328;2023-02-02T08:07:27;8.32;;;1.60;;
2874;SDS011;1445;52.600;13.328;2023-02-02T08:09:52;8.82;;;2.03;;
2874;SDS011;1445;52.600;13.328;2023-02-02T08:12:18;13.57;;;1.80;;
2874;SDS011;1445;52.600;13.328;2023-02-02T08:14:45;6.50;;;1.70;;
2874;SDS011;1445;52.600;13.328;2023-02-02T08:17:11;9.25;;;1.95;;
2874;SDS011;1445;52.600;13.328;2023-02-02T08:19:37;8.43;;;2.17;;
2874;SDS011;1445;52.600;13.328;2023-02-02T08:22:02;11.73;;;2.15;;
2874;SDS011;1445;52.600;13.328;2023-02-02T08:24:28;6.55;;;1.80;;
2874;SDS011;1445;52.600;13.328;2023-02-02T08:26:53;8.65;;;1.73;;
2874;SDS011;1445;52.600;13.328;2023-02-02T08:29:18;7.90;;;1.48;;
2874;SDS011;1445;52.600;13.328;2023-02-02T08:31:44;8.30;;;1.98;;
2874;SDS011;1445;52.600;13.328;2023-02-02T08:34:10;7.82;;;2.83;;
2874;SDS011;1445;52.600;13.328;2023-02-02T08:36:37;8.48;;;2.03;;
2874;SDS011;1445;52.600;13.328;2023-02-02T08:39:07;11.02;;;2.13;;
2874;SDS011;1445;52.600;13.328;2023-02-02T08:41:35;13.05;;;3.80;;
2874;SDS011;1445;52.600;13.328;2023-02-02T08:44:04;6.43;;;1.73;;
2874;SDS011;1445;52.600;13.328;2023-02-02T08:46:30;14.23;;;2.67;;
2874;SDS011;1445;52.600;13.328;2023-02-02T08:48:56;16.58;;;2.97;;
2874;SDS011;1445;52.600;13.328;2023-02-02T08:51:21;11.63;;;2.58;;
2874;SDS011;1445;52.600;13.328;2023-02-02T08:53:46;9.88;;;1.75;;
2874;SDS011;1445;52.600;13.328;2023-02-02T08:56:13;9.27;;;1.92;;
2874;SDS011;1445;52.600;13.328;2023-02-02T08:58:43;7.45;;;1.80;;
2874;SDS011;1445;52.600;13.328;2023-02-02T09:01:11;5.57;;;1.50;;
2874;SDS011;1445;52.600;13.328;2023-02-02T09:03:39;8.23;;;1.70;;
2874;SDS011;1445;52.600;13.328;2023-02-02T09:06:06;7.38;;;1.92;;
2874;SDS011;1445;52.600;13.328;2023-02-02T09:08:43;9.60;;;1.70;;
2874;SDS011;1445;52.600;13.328;2023-02-02T09:11:10;9.95;;;1.70;;
2874;SDS011;1445;52.600;13.328;2023-02-02T09:13:41;8.65;;;1.50;;
2874;SDS011;1445;52.600;13.328;2023-02-02T09:16:09;9.75;;;1.80;;
2874;SDS011;1445;52.600;13.328;2023-02-02T09:18:36;9.77;;;1.90;;
2874;SDS011;1445;52.600;13.328;2023-02-02T09:21:03;10.43;;;1.90;;
2874;SDS011;1445;52.600;13.328;2023-02-02T09:23:30;10.57;;;2.50;;
2874;SDS011;1445;52.600;13.328;2023-02-02T09:26:00;9.55;;;1.63;;
2874;SDS011;1445;52.600;13.328;2023-02-02T09:28:40;7.85;;;1.98;;
2874;SDS011;1445;52.600;13.328;2023-02-02T09:31:09;7.70;;;1.95;;
2874;SDS011;1445;52.600;13.328;2023-02-02T09:33:35;11.68;;;1.77;;
2874;SDS011;1445;52.600;13.328;2023-02-02T09:36:05;8.23;;;1.60;;
2874;SDS011;1445;52.600;13.328;2023-02-02T09:38:35;8.15;;;1.40;;
2874;SDS011;1445;52.600;13.328;2023-02-02T09:41:01;8.40;;;1.58;;
2874;SDS011;1445;52.600;13.328;2023-02-02T09:52:07;7.88;;;2.13;;
2874;SDS011;1445;52.600;13.328;2023-02-02T09:55:43;8.25;;;2.50;;
2874;SDS011;1445;52.600;13.328;2023-02-02T09:57:56;5.55;;;1.10;;
2874;SDS011;1445;52.600;13.328;2023-02-02T10:00:36;8.05;;;1.25;;
2874;SDS011;1445;52.600;13.328;2023-02-02T10:03:13;7.10;;;1.40;;
2874;SDS011;1445;52.600;13.328;2023-02-02T10:06:03;7.82;;;1.40;;
2874;SDS011;1445;52.600;13.328;2023-02-02T10:08:53;6.90;;;1.55;;
2874;SDS011;1445;52.600;13.328;2023-02-02T10:13:58;9.55;;;1.40;;
2874;SDS011;1445;52.600;13.328;2023-02-02T10:16:29;6.85;;;1.35;;
2874;SDS011;1445;52.600;13.328;2023-02-02T10:22:08;8.80;;;1.40;;
2874;SDS011;1445;52.600;13.328;2023-02-02T10:24:18;7.90;;;1.48;;
2874;SDS011;1445;52.600;13.328;2023-02-02T10:26:47;5.43;;;1.30;;
2874;SDS011;1445;52.600;13.328;2023-02-02T10:29:17;9.93;;;1.70;;
2874;SDS011;1445;52.600;13.328;2023-02-02T10:34:32;4.85;;;1.13;;
2874;SDS011;1445;52.600;13.328;2023-02-02T10:45:43;6.40;;;1.33;;
2874;SDS011;1445;52.600;13.328;2023-02-02T10:48:14;5.85;;;1.50;;
2874;SDS011;1445;52.600;13.328;2023-02-02T10:50:44;10.00;;;1.17;;
2874;SDS011;1445;52.600;13.328;2023-02-02T10:53:14;5.65;;;1.20;;
2874;SDS011;1445;52.600;13.328;2023-02-02T11:01:01;4.57;;;1.52;;
2874;SDS011;1445;52.600;13.328;2023-02-02T11:03:31;4.93;;;1.40;;
2874;SDS011;1445;52.600;13.328;2023-02-02T11:05:58;5.55;;;1.40;;
2874;SDS011;1445;52.600;13.328;2023-02-02T11:08:45;7.70;;;1.10;;
2874;SDS011;1445;52.600;13.328;2023-02-02T11:16:35;7.30;;;1.58;;
2874;SDS011;1445;52.600;13.328;2023-02-02T11:19:20;7.07;;;1.50;;
2874;SDS011;1445;52.600;13.328;2023-02-02T11:21:51;9.20;;;1.50;;
2874;SDS011;1445;52.600;13.328;2023-02-02T11:27:11;6.80;;;1.17;;
2874;SDS011;1445;52.600;13.328;2023-02-02T11:29:42;4.60;;;1.30;;
2874;SDS011;1445;52.600;13.328;2023-02-02T11:32:19;4.47;;;0.90;;
2874;SDS011;1445;52.600;13.328;2023-02-02T11:34:53;7.50;;;1.25;;
2874;SDS011;1445;52.600;13.328;2023-02-02T11:37:50;6.97;;;1.10;;
2874;SDS011;1445;52.600;13.328;2023-02-02T11:42:48;4.10;;;1.25;;
2874;SDS011;1445;52.600;13.328;2023-02-02T11:45:22;6.40;;;1.27;;
2874;SDS011;1445;52.600;13.328;2023-02-02T11:48:06;7.40;;;1.60;;
2874;SDS011;1445;52.600;13.328;2023-02-02T11:50:43;4.55;;;1.15;;
2874;SDS011;1445;52.600;13.328;2023-02-02T11:53:21;3.58;;;1.00;;
2874;SDS011;1445;52.600;13.328;2023-02-02T11:55:50;6.22;;;1.02;;
2874;SDS011;1445;52.600;13.328;2023-02-02T12:00:49;4.03;;;1.10;;
2874;SDS011;1445;52.600;13.328;2023-02-02T12:03:49;4.45;;;1.10;;
2874;SDS011;1445;52.600;13.328;2023-02-02T12:08:48;6.20;;;1.20;;
2874;SDS011;1445;52.600;13.328;2023-02-02T12:11:20;9.32;;;1.50;;
2874;SDS011;1445;52.600;13.328;2023-02-02T12:17:16;7.72;;;1.83;;
2874;SDS011;1445;52.600;13.328;2023-02-02T12:20:09;4.18;;;1.02;;
2874;SDS011;1445;52.600;13.328;2023-02-02T12:31:43;5.15;;;1.60;;
2874;SDS011;1445;52.600;13.328;2023-02-02T12:34:21;10.43;;;1.52;;
2874;SDS011;1445;52.600;13.328;2023-02-02T12:42:46;3.75;;;0.82;;
2874;SDS011;1445;52.600;13.328;2023-02-02T12:56:59;4.45;;;0.90;;
2874;SDS011;1445;52.600;13.328;2023-02-02T13:07:45;3.72;;;0.93;;
2874;SDS011;1445;52.600;13.328;2023-02-02T13:15:37;4.55;;;1.10;;
2874;SDS011;1445;52.600;13.328;2023-02-02T13:18:18;4.65;;;1.45;;
2874;SDS011;1445;52.600;13.328;2023-02-02T13:20:52;3.05;;;1.10;;
2874;SDS011;1445;52.600;13.328;2023-02-02T13:23:33;5.22;;;0.85;;
2874;SDS011;1445;52.600;13.328;2023-02-02T13:26:17;6.28;;;1.58;;
2874;SDS011;1445;52.600;13.328;2023-02-02T13:28:49;6.05;;;1.40;;
2874;SDS011;1445;52.600;13.328;2023-02-02T13:37:05;2.33;;;1.10;;
2874;SDS011;1445;52.600;13.328;2023-02-02T13:39:42;4.43;;;1.33;;
2874;SDS011;1445;52.600;13.328;2023-02-02T13:44:46;3.80;;;1.00;;
2874;SDS011;1445;52.600;13.328;2023-02-02T13:47:22;3.47;;;1.05;;
2874;SDS011;1445;52.600;13.328;2023-02-02T13:49:54;3.78;;;1.10;;
2874;SDS011;1445;52.600;13.328;2023-02-02T14:00:52;2.63;;;0.90;;
2874;SDS011;1445;52.600;13.328;2023-02-02T14:08:42;3.15;;;0.80;;
2874;SDS011;1445;52.600;13.328;2023-02-02T14:11:14;4.03;;;0.97;;
2874;SDS011;1445;52.600;13.328;2023-02-02T14:19:01;2.50;;;1.00;;
2874;SDS011;1445;52.600;13.328;2023-02-02T14:34:48;2.58;;;0.90;;
2874;SDS011;1445;52.600;13.328;2023-02-02T14:45:42;4.78;;;0.90;;
2874;SDS011;1445;52.600;13.328;2023-02-02T14:48:09;3.25;;;0.70;;
2874;SDS011;1445;52.600;13.328;2023-02-02T14:50:47;2.35;;;0.90;;
2874;SDS011;1445;52.600;13.328;2023-02-02T14:58:28;3.20;;;0.80;;
2874;SDS011;1445;52.600;13.328;2023-02-02T15:01:04;1.75;;;0.70;;
2874;SDS011;1445;52.600;13.328;2023-02-02T15:06:04;3.58;;;0.90;;
2874;SDS011;1445;52.600;13.328;2023-02-02T15:08:38;2.28;;;0.70;;
2874;SDS011;1445;52.600;13.328;2023-02-02T15:11:05;1.48;;;0.80;;
2874;SDS011;1445;52.600;13.328;2023-02-02T15:14:09;3.22;;;0.90;;
2874;SDS011;1445;52.600;13.328;2023-02-02T15:16:39;2.92;;;0.80;;
2874;SDS011;1445;52.600;13.328;2023-02-02T15:19:10;3.03;;;0.90;;
2874;SDS011;1445;52.600;13.328;2023-02-02T15:21:44;1.55;;;0.90;;
2874;SDS011;1445;52.600;13.328;2023-02-02T15:24:16;3.22;;;0.95;;
2874;SDS011;1445;52.600;13.328;2023-02-02T15:26:45;1.35;;;0.70;;
2874;SDS011;1445;52.600;13.328;2023-02-02T15:29:20;2.55;;;0.77;;
2874;SDS011;1445;52.600;13.328;2023-02-02T15:31:55;4.32;;;1.10;;
2874;SDS011;1445;52.600;13.328;2023-02-02T15:34:42;2.47;;;0.80;;
2874;SDS011;1445;52.600;13.328;2023-02-02T15:37:13;2.10;;;0.80;;
2874;SDS011;1445;52.600;13.328;2023-02-02T15:39:47;3.97;;;1.40;;
2874;SDS011;1445;52.600;13.328;2023-02-02T15:42:24;3.25;;;1.23;;
2874;SDS011;1445;52.600;13.328;2023-02-02T15:45:37;2.38;;;1.27;;
2874;SDS011;1445;52.600;13.328;2023-02-02T15:50:49;3.47;;;1.50;;
2874;SDS011;1445;52.600;13.328;2023-02-02T15:53:52;3.08;;;1.40;;
2874;SDS011;1445;52.600;13.328;2023-02-02T15:56:17;2.03;;;1.17;;
2874;SDS011;1445;52.600;13.328;2023-02-02T15:58:51;3.17;;;1.50;;
2874;SDS011;1445;52.600;13.328;2023-02-02T16:01:19;2.47;;;1.08;;
2874;SDS011;1445;52.600;13.328;2023-02-02T16:03:48;2.25;;;1.00;;
2874;SDS011;1445;52.600;13.328;2023-02-02T16:06:14;3.65;;;1.15;;
2874;SDS011;1445;52.600;13.328;2023-02-02T16:08:42;3.72;;;1.50;;
2874;SDS011;1445;52.600;13.328;2023-02-02T16:11:15;3.58;;;1.40;;
2874;SDS011;1445;52.600;13.328;2023-02-02T16:13:52;4.43;;;1.50;;
2874;SDS011;1445;52.600;13.328;2023-02-02T16:16:24;5.10;;;1.40;;
2874;SDS011;1445;52.600;13.328;2023-02-02T16:21:29;3.65;;;1.38;;
2874;SDS011;1445;52.600;13.328;2023-02-02T16:23:55;4.10;;;1.67;;
2874;SDS011;1445;52.600;13.328;2023-02-02T16:26:22;4.63;;;1.40;;
2874;SDS011;1445;52.600;13.328;2023-02-02T16:28:52;3.20;;;1.48;;
2874;SDS011;1445;52.600;13.328;2023-02-02T16:31:17;4.20;;;1.50;;
2874;SDS011;1445;52.600;13.328;2023-02-02T16:33:43;5.03;;;1.60;;
2874;SDS011;1445;52.600;13.328;2023-02-02T16:36:25;4.30;;;1.77;;
2874;SDS011;1445;52.600;13.328;2023-02-02T16:38:53;5.30;;;2.08;;
2874;SDS011;1445;52.600;13.328;2023-02-02T16:43:50;4.95;;;2.03;;
2874;SDS011;1445;52.600;13.328;2023-02-02T16:46:16;3.30;;;1.67;;
2874;SDS011;1445;52.600;13.328;2023-02-02T16:49:30;5.07;;;1.65;;
2874;SDS011;1445;52.600;13.328;2023-02-02T16:52:12;4.55;;;1.75;;
2874;SDS011;1445;52.600;13.328;2023-02-02T16:54:40;3.35;;;1.70;;
2874;SDS011;1445;52.600;13.328;2023-02-02T17:00:22;6.00;;;1.98;;
2874;SDS011;1445;52.600;13.328;2023-02-02T17:02:50;3.95;;;1.67;;
2874;SDS011;1445;52.600;13.328;2023-02-02T17:07:50;4.63;;;2.17;;
2874;SDS011;1445;52.600;13.328;2023-02-02T17:12:48;3.88;;;1.90;;
2874;SDS011;1445;52.600;13.328;2023-02-02T17:17:42;14.10;;;9.05;;
2874;SDS011;1445;52.600;13.328;2023-02-02T17:20:09;13.80;;;6.63;;
2874;SDS011;1445;52.600;13.328;2023-02-02T17:22:39;11.30;;;6.05;;
2874;SDS011;1445;52.600;13.328;2023-02-02T17:25:17;10.57;;;5.88;;
2874;SDS011;1445;52.600;13.328;2023-02-02T17:27:47;8.70;;;5.05;;
2874;SDS011;1445;52.600;13.328;2023-02-02T17:30:14;11.88;;;6.50;;
2874;SDS011;1445;52.600;13.328;2023-02-02T17:32:41;8.77;;;4.63;;
2874;SDS011;1445;52.600;13.328;2023-02-02T17:35:25;5.00;;;4.05;;
2874;SDS011;1445;52.600;13.328;2023-02-02T17:37:51;6.63;;;4.20;;
2874;SDS011;1445;52.600;13.328;2023-02-02T17:40:19;6.65;;;3.05;;
2874;SDS011;1445;52.600;13.328;2023-02-02T17:42:47;6.30;;;3.03;;
2874;SDS011;1445;52.600;13.328;2023-02-02T17:45:16;7.45;;;3.63;;
2874;SDS011;1445;52.600;13.328;2023-02-02T17:47:42;6.28;;;3.95;;
2874;SDS011;1445;52.600;13.328;2023-02-02T17:50:11;4.07;;;2.33;;
2874;SDS011;1445;52.600;13.328;2023-02-02T17:52:37;5.03;;;2.80;;
2874;SDS011;1445;52.600;13.328;2023-02-02T17:55:07;4.97;;;2.10;;
2874;SDS011;1445;52.600;13.328;2023-02-02T18:00:02;4.78;;;1.95;;
2874;SDS011;1445;52.600;13.328;2023-02-02T18:02:28;3.55;;;1.80;;
2874;SDS011;1445;52.600;13.328;2023-02-02T18:04:54;4.57;;;1.70;;
2874;SDS011;1445;52.600;13.328;2023-02-02T18:07:19;4.07;;;1.70;;
2874;SDS011;1445;52.600;13.328;2023-02-02T18:09:45;4.15;;;2.10;;
2874;SDS011;1445;52.600;13.328;2023-02-02T18:12:10;5.25;;;2.08;;
2874;SDS011;1445;52.600;13.328;2023-02-02T18:14:36;4.95;;;1.80;;
2874;SDS011;1445;52.600;13.328;2023-02-02T18:17:02;4.93;;;2.45;;
2874;SDS011;1445;52.600;13.328;2023-02-02T18:19:27;4.15;;;2.45;;
2874;SDS011;1445;52.600;13.328;2023-02-02T18:21:54;6.60;;;3.80;;
2874;SDS011;1445;52.600;13.328;2023-02-02T18:24:19;5.90;;;4.28;;
2874;SDS011;1445;52.600;13.328;2023-02-02T18:26:45;9.93;;;4.90;;
2874;SDS011;1445;52.600;13.328;2023-02-02T18:29:10;8.98;;;5.70;;
2874;SDS011;1445;52.600;13.328;2023-02-02T18:31:36;9.77;;;5.72;;